Time;durP1;ratioP1;P1;durP2;ratioP2;P2;SDS_P1;SDS_P2;PMS_P1;PMS_P2;Temp;Humidity;BMP_temperature;BMP_pressure;BME280_temperature;BME280_humidity;BME280_pressure;Samples;Min_cycle;Max_cycle;Signal;HPM_P1;HPM_P2
2023/07/29 00:00:19;;;;;;;5.70;4.50;;;;;;;17.02;89.70;99120.47;218991;1255;140065;-70
2023/07/29 00:05:43;;;;;;;8.80;5.00;;;;;;;17.04;89.80;99118.51;218915;1256;142533;-69
2023/07/29 00:10:47;;;;;;;10.20;5.60;;;;;;;17.06;89.84;99121.71;220271;1256;140367;-70
2023/07/29 00:15:55;;;;;;;5.00;4.50;;;;;;;17.10;89.89;99128.83;220041;1255;141299;-70
2023/07/29 00:20:59;;;;;;;5.60;4.80;;;;;;;17.13;89.85;99133.54;218153;1257;140037;-69
2023/07/29 00:26:04;;;;;;;5.50;5.10;;;;;;;17.15;89.82;99137.55;220364;1254;515696;-69
2023/07/29 00:31:08;;;;;;;8.10;4.80;;;;;;;17.14;89.63;99132.77;220437;1255;139925;-69
2023/07/29 00:36:12;;;;;;;6.70;4.60;;;;;;;17.14;89.53;99130.66;219950;1256;140146;-69
2023/07/29 00:41:16;;;;;;;6.50;4.70;;;;;;;17.16;89.66;99136.62;220222;1255;140013;-68
2023/07/29 00:46:22;;;;;;;7.50;4.80;;;;;;;17.17;89.42;99133.27;219189;1255;140665;-66
2023/07/29 00:51:26;;;;;;;8.70;5.50;;;;;;;17.17;89.52;99135.38;219566;1254;143942;-67
2023/07/29 00:56:31;;;;;;;6.70;6.00;;;;;;;17.18;89.60;99144.77;218204;1257;139740;-67
2023/07/29 01:01:36;;;;;;;5.10;4.70;;;;;;;17.16;89.46;99145.08;218761;1258;140033;-68
2023/07/29 01:06:53;;;;;;;7.10;5.20;;;;;;;17.11;89.36;99138.59;218197;1258;140198;-66
2023/07/29 01:12:42;;;;;;;10.10;6.20;;;;;;;17.10;89.63;99131.14;218914;1256;140120;-65
2023/07/29 01:18:05;;;;;;;6.20;5.70;;;;;;;17.08;89.70;99137.24;218148;1256;140367;-65
2023/07/29 01:23:10;;;;;;;9.50;5.60;;;;;;;17.06;89.71;99143.41;217978;1256;140808;-65
2023/07/29 01:28:14;;;;;;;6.30;5.70;;;;;;;17.04;89.83;99144.95;218824;1255;140335;-66
2023/07/29 01:33:26;;;;;;;5.40;4.90;;;;;;;17.02;89.71;99148.25;219371;1256;140432;-65
2023/07/29 01:38:38;;;;;;;6.00;5.30;;;;;;;16.98;89.62;99156.71;217972;1259;140306;-65
2023/07/29 01:43:43;;;;;;;7.30;6.60;;;;;;;16.95;89.60;99162.89;218008;1259;140049;-66
2023/07/29 01:48:49;;;;;;;6.40;5.80;;;;;;;16.95;89.88;99162.46;218361;1256;139928;-65
2023/07/29 01:53:55;;;;;;;7.00;6.40;;;;;;;16.93;89.93;99171.96;219696;1256;140872;-65
2023/07/29 01:59:03;;;;;;;9.30;6.50;;;;;;;16.94;90.23;99168.94;218014;1259;140099;-64
2023/07/29 02:04:07;;;;;;;10.00;7.30;;;;;;;16.94;90.12;99164.30;220484;1256;140127;-68
2023/07/29 02:09:11;;;;;;;8.40;6.40;;;;;;;16.95;90.05;99172.74;218680;1256;140611;-67
2023/07/29 02:14:15;;;;;;;8.40;6.90;;;;;;;16.89;89.80;99172.66;218599;1257;140563;-67
2023/07/29 02:19:19;;;;;;;8.00;7.10;;;;;;;16.87;90.24;99176.34;220379;1255;140167;-67
2023/07/29 02:24:22;;;;;;;9.00;7.90;;;;;;;16.88;89.97;99183.48;220480;1256;141343;-67
2023/07/29 02:29:26;;;;;;;7.60;6.90;;;;;;;16.83;89.49;99187.13;219307;1259;140265;-67
2023/07/29 02:34:30;;;;;;;11.20;7.20;;;;;;;16.71;89.22;99192.70;219181;1254;140498;-66
2023/07/29 02:39:34;;;;;;;8.60;7.80;;;;;;;16.67;89.63;99192.96;220562;1256;140219;-68
2023/07/29 02:44:40;;;;;;;10.00;7.80;;;;;;;16.67;89.68;99193.66;218956;1255;141345;-67
2023/07/29 02:49:44;;;;;;;7.30;6.60;;;;;;;16.65;89.42;99195.14;220300;1255;141904;-66
2023/07/29 02:54:48;;;;;;;8.30;6.10;;;;;;;16.57;88.95;99190.27;218646;1256;140016;-66
2023/07/29 02:59:52;;;;;;;9.60;7.10;;;;;;;16.50;88.69;99194.01;219391;1257;140043;-68
2023/07/29 03:04:55;;;;;;;7.20;5.70;;;;;;;16.46;88.94;99200.89;218177;1256;139999;-67
2023/07/29 03:10:00;;;;;;;7.40;6.60;;;;;;;16.46;89.23;99200.24;218857;1255;141159;-69
2023/07/29 03:15:05;;;;;;;13.00;8.70;;;;;;;16.43;89.06;99204.85;218316;1256;140530;-66
2023/07/29 03:20:10;;;;;;;14.00;10.90;;;;;;;16.39;89.37;99212.84;218691;1256;140581;-65
2023/07/29 03:25:15;;;;;;;9.90;9.00;;;;;;;16.39;89.70;99212.46;218024;1256;140694;-68
2023/07/29 03:30:21;;;;;;;12.50;10.50;;;;;;;16.43;90.01;99219.64;218163;1257;140973;-67
2023/07/29 03:35:25;;;;;;;13.30;10.60;;;;;;;16.48;90.24;99213.55;218844;1255;141457;-67
2023/07/29 03:40:30;;;;;;;12.10;10.60;;;;;;;16.51;90.14;99215.13;218950;1256;140563;-68
2023/07/29 03:45:36;;;;;;;15.60;11.30;;;;;;;16.50;90.11;99216.88;217997;1256;142406;-67
2023/07/29 03:50:41;;;;;;;11.30;9.80;;;;;;;16.54;90.19;99221.60;219497;1258;141625;-70
2023/07/29 03:55:46;;;;;;;14.50;12.50;;;;;;;16.62;90.52;99223.25;219491;1256;140079;-69
2023/07/29 04:00:51;;;;;;;13.30;10.80;;;;;;;16.71;90.62;99234.11;218242;1255;140707;-71
2023/07/29 04:05:56;;;;;;;14.20;10.90;;;;;;;16.76;90.50;99232.06;218979;1256;141110;-71
2023/07/29 04:11:00;;;;;;;11.50;10.10;;;;;;;16.81;90.63;99231.77;219957;1254;140572;-69
2023/07/29 04:16:05;;;;;;;15.10;12.40;;;;;;;16.85;90.81;99232.48;219587;1257;140485;-71
2023/07/29 04:21:09;;;;;;;11.60;9.80;;;;;;;17.00;91.08;99232.08;219793;1254;140475;-69
2023/07/29 04:26:14;;;;;;;16.00;12.20;;;;;;;17.14;91.07;99232.63;219424;1258;141523;-69
2023/07/29 04:31:18;;;;;;;16.20;11.80;;;;;;;17.27;91.09;99229.72;220903;1254;141144;-65
2023/07/29 04:36:22;;;;;;;19.70;12.60;;;;;;;17.43;91.02;99229.05;220651;1254;141298;-66
2023/07/29 04:41:27;;;;;;;17.30;11.80;;;;;;;17.58;90.97;99229.80;220784;1254;140883;-65
2023/07/29 04:46:31;;;;;;;18.90;11.80;;;;;;;17.65;90.92;99237.11;218887;1257;141169;-67
2023/07/29 04:51:37;;;;;;;19.20;14.00;;;;;;;17.75;90.84;99240.39;219266;1254;140527;-67
2023/07/29 04:56:41;;;;;;;17.80;14.50;;;;;;;17.89;90.79;99242.45;219379;1254;140688;-67
2023/07/29 05:01:46;;;;;;;23.80;13.80;;;;;;;17.95;90.38;99248.14;218599;1254;140949;-66
2023/07/29 05:06:51;;;;;;;19.50;14.30;;;;;;;17.98;90.43;99248.23;218298;1254;140872;-66
2023/07/29 05:11:55;;;;;;;17.10;15.20;;;;;;;18.05;90.62;99252.73;219085;1257;141051;-66
2023/07/29 05:17:00;;;;;;;25.40;18.20;;;;;;;18.17;90.93;99248.50;219039;1257;140501;-70
2023/07/29 05:22:05;;;;;;;20.60;17.70;;;;;;;18.26;90.65;99243.08;219691;1254;140984;-68
2023/07/29 05:27:10;;;;;;;23.50;17.70;;;;;;;18.31;90.49;99247.15;218341;1254;141338;-67
2023/07/29 05:32:14;;;;;;;21.60;18.00;;;;;;;18.38;90.56;99254.05;218005;1258;140638;-68
2023/07/29 05:37:18;;;;;;;24.90;17.80;;;;;;;18.45;90.61;99247.83;218431;1254;140626;-67
2023/07/29 05:42:23;;;;;;;19.40;14.40;;;;;;;18.64;90.93;99247.67;217908;1258;141352;-68
2023/07/29 05:47:28;;;;;;;16.10;14.50;;;;;;;18.81;90.65;99246.33;218035;1254;140455;-66
2023/07/29 05:52:33;;;;;;;14.00;12.40;;;;;;;18.92;90.61;99248.10;217786;1254;140625;-66
2023/07/29 05:57:37;;;;;;;15.70;14.10;;;;;;;18.98;89.57;99250.87;218813;1256;141139;-69
2023/07/29 06:02:44;;;;;;;12.50;11.30;;;;;;;19.00;89.29;99252.88;218107;1254;140431;-69
2023/07/29 06:07:49;;;;;;;14.60;13.10;;;;;;;19.06;89.02;99263.15;218888;1254;140614;-68
2023/07/29 06:12:53;;;;;;;14.00;11.00;;;;;;;19.15;89.41;99263.45;218676;1254;140349;-69
2023/07/29 06:17:58;;;;;;;14.50;13.00;;;;;;;19.45;89.01;99261.45;220774;1254;143800;-69
2023/07/29 06:23:04;;;;;;;13.70;11.30;;;;;;;19.99;88.87;99268.00;220660;1254;140663;-66
2023/07/29 06:28:11;;;;;;;12.90;11.70;;;;;;;20.39;87.50;99276.69;220114;1254;141825;-69
2023/07/29 06:33:15;;;;;;;12.70;11.60;;;;;;;20.47;87.10;99282.47;220646;1254;140694;-70
2023/07/29 06:38:21;;;;;;;13.70;11.70;;;;;;;20.80;86.76;99281.84;220640;1257;141023;-70
2023/07/29 06:43:26;;;;;;;12.60;11.40;;;;;;;21.39;85.85;99285.52;220725;1254;141857;-70
2023/07/29 06:48:30;;;;;;;13.90;10.40;;;;;;;21.76;85.31;99285.81;220710;1254;140747;-68
2023/07/29 06:53:34;;;;;;;11.20;9.20;;;;;;;22.35;84.14;99286.27;220401;1256;141324;-68
2023/07/29 06:58:40;;;;;;;12.70;9.00;;;;;;;22.85;83.57;99285.06;219337;1254;140373;-67
2023/07/29 07:03:44;;;;;;;9.60;8.80;;;;;;;23.65;82.13;99283.33;219086;1257;140537;-68
2023/07/29 07:08:50;;;;;;;8.70;8.00;;;;;;;23.60;79.77;99285.25;217954;1258;139848;-69
2023/07/29 07:13:55;;;;;;;8.80;8.00;;;;;;;23.30;79.52;99287.58;218689;1257;141964;-65
2023/07/29 07:18:59;;;;;;;9.40;7.20;;;;;;;23.59;80.14;99283.73;218363;1256;140699;-66
2023/07/29 07:24:04;;;;;;;9.30;8.50;;;;;;;24.20;80.14;99286.20;218647;1258;141383;-67
2023/07/29 07:29:08;;;;;;;8.90;7.30;;;;;;;25.53;80.00;99284.23;217979;1254;142419;-66
2023/07/29 07:34:13;;;;;;;7.60;6.80;;;;;;;26.45;78.17;99280.91;218677;1257;141838;-65
2023/07/29 07:39:17;;;;;;;7.40;6.80;;;;;;;26.51;75.70;99285.36;218818;1257;140960;-66
2023/07/29 07:44:21;;;;;;;6.70;6.00;;;;;;;25.99;73.36;99289.65;217934;1259;141400;-65
2023/07/29 07:49:26;;;;;;;8.50;7.70;;;;;;;25.58;73.29;99286.52;218517;1254;140665;-67
2023/07/29 07:54:31;;;;;;;7.80;7.10;;;;;;;25.46;73.35;99278.11;218254;1257;140602;-66
2023/07/29 07:59:35;;;;;;;7.80;7.20;;;;;;;24.93;72.87;99275.83;218699;1259;141224;-67
2023/07/29 08:04:41;;;;;;;6.60;6.00;;;;;;;24.86;74.04;99270.29;218799;1257;154014;-67
2023/07/29 08:09:44;;;;;;;6.90;6.40;;;;;;;25.66;74.69;99264.75;218969;1257;141414;-67
2023/07/29 08:14:48;;;;;;;7.10;6.50;;;;;;;25.69;72.97;99263.06;217627;1257;141688;-67
2023/07/29 08:19:52;;;;;;;7.50;5.40;;;;;;;26.17;72.56;99260.95;218229;1258;139996;-64
2023/07/29 08:24:56;;;;;;;6.10;5.60;;;;;;;26.58;71.77;99258.14;219877;1257;140985;-65
2023/07/29 08:30:00;;;;;;;6.40;5.10;;;;;;;26.96;70.72;99252.42;220404;1257;140321;-65
2023/07/29 08:35:04;;;;;;;7.90;5.70;;;;;;;26.93;69.71;99254.77;220477;1254;140519;-66
2023/07/29 08:40:09;;;;;;;5.40;5.00;;;;;;;27.22;69.44;99251.46;220485;1256;142835;-68
2023/07/29 08:45:14;;;;;;;4.80;4.60;;;;;;;27.15;68.63;99248.66;220150;1254;140352;-72
2023/07/29 08:50:19;;;;;;;4.40;4.00;;;;;;;26.76;68.36;99247.71;218663;1259;140685;-69
2023/07/29 08:55:25;;;;;;;3.50;3.30;;;;;;;27.05;69.07;99243.96;217867;1257;141127;-74
2023/07/29 09:00:29;;;;;;;2.80;2.70;;;;;;;26.79;66.24;99239.58;218130;1259;139922;-74
2023/07/29 09:05:34;;;;;;;3.40;3.00;;;;;;;26.32;66.32;99239.34;218512;1258;139815;-71
2023/07/29 09:10:39;;;;;;;4.00;3.70;;;;;;;26.72;66.45;99238.02;218388;1255;139777;-66
2023/07/29 09:15:44;;;;;;;3.20;3.10;;;;;;;27.18;66.32;99237.77;218823;1259;139468;-66
2023/07/29 09:20:50;;;;;;;2.70;2.50;;;;;;;27.63;65.73;99230.91;218390;1257;139621;-67
2023/07/29 09:26:02;;;;;;;2.50;2.40;;;;;;;28.08;64.53;99222.35;218790;1257;140031;-67
2023/07/29 09:31:06;;;;;;;5.30;3.10;;;;;;;28.13;63.26;99222.58;218028;1257;139826;-67
2023/07/29 09:36:11;;;;;;;2.80;2.60;;;;;;;27.63;62.26;99225.38;217698;1256;140222;-66
2023/07/29 09:41:15;;;;;;;3.20;3.00;;;;;;;27.62;63.08;99220.20;217752;1260;139477;-68
2023/07/29 09:46:23;;;;;;;2.60;2.50;;;;;;;28.19;62.85;99211.11;217956;1259;139374;-67
2023/07/29 09:51:27;;;;;;;3.20;3.00;;;;;;;28.52;61.34;99210.04;217554;1258;139191;-66
2023/07/29 09:56:31;;;;;;;3.10;2.80;;;;;;;28.43;60.42;99200.58;218903;1256;140132;-67
2023/07/29 10:01:36;;;;;;;2.60;2.50;;;;;;;28.75;60.31;99201.40;219597;1257;140969;-66
2023/07/29 10:06:42;;;;;;;3.30;3.10;;;;;;;28.63;58.72;99198.31;218922;1257;139216;-67
2023/07/29 10:11:47;;;;;;;4.00;2.60;;;;;;;28.45;58.40;99199.66;218598;1258;139267;-67
2023/07/29 10:16:51;;;;;;;3.00;2.70;;;;;;;27.96;58.07;99197.15;218033;1260;139471;-66
2023/07/29 10:21:58;;;;;;;5.60;3.40;;;;;;;27.59;57.73;99201.03;217937;1254;139463;-66
2023/07/29 10:27:03;;;;;;;3.20;2.90;;;;;;;27.66;58.86;99196.27;217771;1255;140175;-67
2023/07/29 10:32:08;;;;;;;;;;;;;;;27.96;58.51;99182.98;219050;1258;139193;-67
2023/07/29 10:37:13;;;;;;;5.40;2.90;;;;;;;28.31;58.11;99186.27;219460;1259;126919;-68
2023/07/29 10:42:17;;;;;;;3.00;2.80;;;;;;;28.75;57.34;99182.05;217950;1259;139383;-66
2023/07/29 10:47:27;;;;;;;2.80;2.60;;;;;;;29.03;56.78;99186.79;219366;1259;140353;-67
2023/07/29 10:52:34;;;;;;;2.20;2.00;;;;;;;28.87;55.41;99175.65;218342;1257;139893;-67
2023/07/29 10:57:42;;;;;;;2.20;2.10;;;;;;;28.20;55.02;99172.29;218859;1257;140503;-67
2023/07/29 11:03:01;;;;;;;6.70;2.70;;;;;;;27.83;55.56;99170.98;218961;1254;139333;-69
2023/07/29 11:08:36;;;;;;;4.00;2.50;;;;;;;28.00;56.23;99163.80;217937;1259;139275;-67
2023/07/29 11:13:40;;;;;;;3.40;3.10;;;;;;;27.81;55.72;99162.67;218731;1257;140402;-68
2023/07/29 11:18:46;;;;;;;2.60;2.50;;;;;;;27.57;55.48;99153.84;218504;1259;140070;-67
2023/07/29 11:23:53;;;;;;;2.40;2.30;;;;;;;27.53;55.83;99143.11;219266;1257;140146;-68
2023/07/29 11:29:02;;;;;;;2.20;2.00;;;;;;;28.11;56.22;99135.11;218449;1260;139807;-67
2023/07/29 11:34:07;;;;;;;9.30;3.50;;;;;;;28.70;55.82;99132.06;218430;1260;139393;-67
2023/07/29 11:39:11;;;;;;;5.50;2.80;;;;;;;28.67;54.71;99131.45;218091;1257;139993;-67
2023/07/29 11:44:18;;;;;;;2.70;2.30;;;;;;;28.88;54.59;99121.67;218171;1259;139599;-67
2023/07/29 11:49:22;;;;;;;3.50;2.10;;;;;;;29.33;54.00;99114.87;218535;1257;139934;-67
2023/07/29 11:54:27;;;;;;;;;;;;;;;29.36;52.91;99118.27;217778;1257;140829;-66
2023/07/29 12:33:29;;;;;;;3.10;2.90;;;;;;;29.49;50.96;99071.76;218583;1257;236612;-67
2023/07/29 12:38:35;;;;;;;10.40;2.70;;;;;;;29.33;50.85;99066.02;218028;1257;139447;-67
2023/07/29 12:43:40;;;;;;;2.50;2.20;;;;;;;29.62;50.33;99061.21;218132;1258;139504;-67
2023/07/29 12:48:44;;;;;;;2.70;2.50;;;;;;;29.77;49.47;99060.41;218121;1255;139680;-66
2023/07/29 12:53:47;;;;;;;2.40;2.30;;;;;;;29.88;49.62;99056.67;218163;1257;204929;-67
2023/07/29 12:58:51;;;;;;;2.60;2.40;;;;;;;30.01;49.01;99051.52;218170;1254;140046;-67
2023/07/29 13:03:56;;;;;;;2.60;2.00;;;;;;;30.22;48.63;99044.55;218078;1257;139655;-67
2023/07/29 13:09:00;;;;;;;2.30;2.10;;;;;;;30.25;47.99;99044.80;218319;1257;139588;-67
2023/07/29 13:14:05;;;;;;;4.40;2.70;;;;;;;29.88;47.52;99039.95;218529;1257;141269;-67
2023/07/29 13:19:08;;;;;;;2.70;2.60;;;;;;;29.68;48.01;99032.39;218808;1256;140324;-67
2023/07/29 13:24:12;;;;;;;3.20;2.40;;;;;;;29.70;47.36;99024.95;218077;1259;139451;-67
2023/07/29 13:29:16;;;;;;;2.20;2.10;;;;;;;29.57;47.38;99013.40;217744;1254;139331;-67
2023/07/29 13:34:19;;;;;;;4.20;2.30;;;;;;;29.27;47.54;99005.53;218482;1256;139200;-67
2023/07/29 13:39:25;;;;;;;;;;;;;;;29.03;47.66;98997.39;219007;1256;140198;-68
2023/07/29 13:44:28;;;;;;;2.60;2.40;;;;;;;29.20;47.72;98993.55;219516;1257;125859;-67
2023/07/29 13:49:32;;;;;;;2.10;2.00;;;;;;;29.48;47.91;98991.95;218746;1256;139573;-67
2023/07/29 13:54:38;;;;;;;1.70;1.60;;;;;;;29.49;47.26;98988.52;218470;1257;140809;-68
2023/07/29 13:59:43;;;;;;;2.20;2.10;;;;;;;29.21;46.78;98986.27;220598;1256;139730;-69
2023/07/29 14:04:48;;;;;;;2.10;2.00;;;;;;;29.23;46.90;98978.84;219017;1256;140490;-68
2023/07/29 14:09:53;;;;;;;1.80;1.70;;;;;;;29.46;46.96;98968.25;220692;1255;140964;-69
2023/07/29 14:14:58;;;;;;;1.90;1.80;;;;;;;29.42;45.86;98967.66;219877;1256;139817;-71
2023/07/29 14:20:04;;;;;;;2.60;2.30;;;;;;;29.46;46.06;98964.02;220250;1256;140778;-70
2023/07/29 14:25:09;;;;;;;2.20;2.00;;;;;;;29.47;46.33;98962.38;220659;1256;139854;-71
2023/07/29 14:30:14;;;;;;;2.70;2.50;;;;;;;29.54;45.92;98957.42;218459;1256;139011;-70
2023/07/29 14:35:18;;;;;;;1.80;1.70;;;;;;;29.59;45.26;98949.62;219340;1257;140076;-68
2023/07/29 14:40:24;;;;;;;2.60;2.20;;;;;;;29.55;45.36;98941.73;220470;1256;139887;-68
2023/07/29 14:45:29;;;;;;;1.80;1.70;;;;;;;29.84;45.31;98937.70;218208;1258;139824;-68
2023/07/29 14:50:33;;;;;;;3.50;1.90;;;;;;;29.74;44.75;98933.08;218079;1257;141523;-68
2023/07/29 14:55:38;;;;;;;5.00;2.30;;;;;;;29.44;44.31;98927.90;218881;1256;139046;-67
2023/07/29 15:00:43;;;;;;;2.00;1.90;;;;;;;29.02;44.55;98919.36;218067;1256;140001;-67
2023/07/29 15:05:47;;;;;;;2.00;1.80;;;;;;;28.82;45.54;98915.48;218232;1256;140315;-67
2023/07/29 15:10:53;;;;;;;2.60;2.40;;;;;;;28.88;45.27;98907.55;217820;1256;139017;-67
2023/07/29 15:15:58;;;;;;;2.90;1.80;;;;;;;28.80;45.16;98897.48;218566;1257;139111;-67
2023/07/29 15:21:02;;;;;;;1.70;1.60;;;;;;;28.66;45.61;98897.17;218533;1256;141908;-67
2023/07/29 15:26:07;;;;;;;2.60;2.20;;;;;;;28.39;45.48;98903.37;218263;1256;140007;-67
2023/07/29 15:31:14;;;;;;;3.10;2.40;;;;;;;28.23;45.53;98898.14;217952;1254;139613;-67
2023/07/29 15:36:19;;;;;;;;;;;;;;;28.20;46.18;98901.84;218042;1254;138882;-67
2023/07/29 15:41:24;;;;;;;2.00;1.80;;;;;;;28.26;46.35;98902.11;218709;1257;126801;-67
2023/07/29 15:46:30;;;;;;;2.00;1.90;;;;;;;28.30;46.26;98903.48;217900;1259;139422;-68
2023/07/29 15:51:36;;;;;;;2.40;2.20;;;;;;;28.28;46.21;98897.13;220346;1254;140580;-68
2023/07/29 15:56:49;;;;;;;7.30;2.20;;;;;;;28.19;46.07;98893.55;219619;1254;139565;-66
2023/07/29 16:02:09;;;;;;;1.70;1.60;;;;;;;28.08;46.29;98886.91;219508;1254;139764;-68
2023/07/29 16:07:13;;;;;;;4.10;2.20;;;;;;;27.94;46.18;98887.02;220687;1254;140866;-67
2023/07/29 16:12:18;;;;;;;7.20;2.30;;;;;;;27.88;46.13;98882.63;220063;1254;139834;-67
2023/07/29 16:17:23;;;;;;;2.40;2.30;;;;;;;27.70;46.64;98874.18;220680;1254;140148;-68
2023/07/29 16:22:29;;;;;;;5.10;2.60;;;;;;;27.67;46.94;98864.12;220348;1254;141198;-67
2023/07/29 16:27:33;;;;;;;2.70;2.50;;;;;;;27.64;47.27;98859.14;220712;1254;140101;-67
2023/07/29 16:32:38;;;;;;;3.40;3.20;;;;;;;27.52;47.83;98857.22;219384;1254;140395;-68
2023/07/29 16:37:44;;;;;;;3.10;2.70;;;;;;;27.38;48.11;98854.27;218313;1254;140214;-68
2023/07/29 16:42:48;;;;;;;3.80;2.90;;;;;;;27.21;48.81;98901.91;218902;1255;139910;-69
2023/07/29 16:47:55;;;;;;;2.90;2.60;;;;;;;26.38;50.93;98949.11;218240;1254;139568;-67
2023/07/29 16:52:59;;;;;;;2.80;1.80;;;;;;;25.56;53.11;98893.77;217891;1256;139569;-68
2023/07/29 16:58:03;;;;;;;2.30;2.10;;;;;;;24.88;53.75;98858.73;217975;1254;139748;-69
2023/07/29 17:03:08;;;;;;;10.40;3.40;;;;;;;24.21;55.55;98848.79;217984;1254;139589;-69
2023/07/29 17:08:13;;;;;;;3.00;2.80;;;;;;;23.83;57.59;98840.45;218931;1257;140400;-68
2023/07/29 17:13:17;;;;;;;5.40;2.20;;;;;;;23.63;58.88;98843.19;217830;1258;141511;-69
2023/07/29 17:18:24;;;;;;;9.00;3.00;;;;;;;23.16;60.13;98841.69;217812;1259;139363;-68
2023/07/29 17:23:34;;;;;;;2.30;2.10;;;;;;;22.82;62.06;98834.15;218374;1254;140187;-68
2023/07/29 17:28:39;;;;;;;5.40;3.10;;;;;;;22.62;62.95;98827.05;218030;1254;140190;-68
2023/07/29 17:33:43;;;;;;;6.20;2.50;;;;;;;22.48;64.19;98831.23;219800;1256;140752;-69
2023/07/29 17:38:47;;;;;;;5.90;2.80;;;;;;;22.19;65.10;98827.73;217605;1257;141199;-68
2023/07/29 17:43:52;;;;;;;6.20;3.70;;;;;;;21.94;66.14;98822.05;217684;1257;142326;-68
2023/07/29 17:48:58;;;;;;;3.30;3.10;;;;;;;21.86;67.36;98818.05;219881;1256;141517;-67
2023/07/29 17:54:02;;;;;;;6.20;3.50;;;;;;;21.77;68.19;98818.20;219293;1256;141518;-68
2023/07/29 17:59:07;;;;;;;4.00;3.60;;;;;;;21.70;68.69;98813.98;218350;1256;141205;-67
2023/07/29 18:04:12;;;;;;;3.60;3.20;;;;;;;21.61;69.41;98817.73;217640;1256;140512;-68
2023/07/29 18:09:15;;;;;;;5.10;3.80;;;;;;;21.43;70.19;98822.78;219451;1257;141152;-69
2023/07/29 18:14:21;;;;;;;4.40;3.80;;;;;;;21.30;71.12;98835.36;220545;1256;141853;-68
2023/07/29 18:19:29;;;;;;;5.80;4.60;;;;;;;21.25;71.59;98842.27;219227;1256;142654;-68
2023/07/29 18:24:33;;;;;;;4.60;4.20;;;;;;;21.25;71.87;98843.20;219118;1256;140502;-68
2023/07/29 18:29:38;;;;;;;3.40;3.20;;;;;;;21.26;72.01;98844.03;219059;1256;140548;-69
2023/07/29 18:34:44;;;;;;;3.80;3.50;;;;;;;21.24;71.74;98844.03;219112;1256;141611;-68
2023/07/29 18:39:48;;;;;;;4.10;3.30;;;;;;;21.18;71.67;98844.74;219406;1254;139934;-67
2023/07/29 18:44:52;;;;;;;6.20;3.30;;;;;;;21.09;71.59;98845.02;218958;1256;141100;-67
2023/07/29 18:49:55;;;;;;;3.10;2.80;;;;;;;20.99;71.73;98854.35;218465;1257;142156;-67
2023/07/29 18:54:59;;;;;;;4.40;2.40;;;;;;;20.84;71.65;98856.27;218452;1256;140356;-67
2023/07/29 19:00:04;;;;;;;4.80;3.20;;;;;;;20.73;71.68;98859.09;218215;1255;140129;-66
2023/07/29 19:05:11;;;;;;;3.80;2.80;;;;;;;20.74;72.25;98886.96;217778;1259;140214;-67
2023/07/29 19:10:15;;;;;;;3.50;3.20;;;;;;;20.70;72.25;98911.73;218807;1257;140211;-69
2023/07/29 19:15:20;;;;;;;1.90;1.80;;;;;;;20.64;72.26;98917.41;218144;1259;141536;-65
2023/07/29 19:20:27;;;;;;;4.60;2.10;;;;;;;20.65;72.12;98917.75;217604;1259;140187;-67
2023/07/29 19:25:54;;;;;;;6.50;1.80;;;;;;;20.63;72.04;98926.19;219742;1256;223408;-65
2023/07/29 19:31:14;;;;;;;4.40;1.70;;;;;;;20.61;71.94;98936.48;218634;1256;139910;-64
2023/07/29 19:36:34;;;;;;;1.70;1.60;;;;;;;20.62;71.67;98930.14;219428;1255;140201;-67
2023/07/29 19:42:04;;;;;;;7.80;1.70;;;;;;;20.60;71.47;98920.39;218537;1257;140237;-68
2023/07/29 19:47:34;;;;;;;4.10;1.20;;;;;;;20.58;71.53;98931.45;219461;1256;210172;-69
2023/07/29 19:52:53;;;;;;;4.10;1.90;;;;;;;20.58;71.91;98943.98;218962;1254;140042;-67
2023/07/29 19:58:27;;;;;;;2.40;1.70;;;;;;;20.47;71.99;98961.24;218439;1256;141386;-66
2023/07/29 20:03:50;;;;;;;1.40;1.30;;;;;;;20.38;72.35;99006.46;218477;1257;139737;-68
2023/07/29 20:09:08;;;;;;;3.10;1.10;;;;;;;20.30;72.43;99014.15;220629;1256;140413;-66
2023/07/29 20:14:33;;;;;;;1.10;1.10;;;;;;;20.26;72.62;99010.70;218229;1259;140089;-70
2023/07/29 20:19:56;;;;;;;1.80;1.70;;;;;;;20.31;73.15;99013.14;218735;1256;245587;-69
2023/07/29 20:25:00;;;;;;;1.40;1.30;;;;;;;20.35;73.27;99008.14;219057;1256;140536;-65
2023/07/29 20:30:07;;;;;;;1.60;1.50;;;;;;;20.36;73.66;99019.82;218217;1256;141208;-65
2023/07/29 20:35:30;;;;;;;1.90;1.40;;;;;;;20.28;73.73;99032.64;219434;1259;143162;-66
2023/07/29 20:40:58;;;;;;;2.40;1.70;;;;;;;20.10;73.73;99020.67;219084;1256;140101;-67
2023/07/29 20:46:31;;;;;;;7.70;2.00;;;;;;;19.90;74.06;99007.02;218319;1256;141131;-70
2023/07/29 20:51:54;;;;;;;1.60;1.50;;;;;;;19.83;74.60;98997.66;219344;1256;140565;-66
2023/07/29 20:57:18;;;;;;;1.70;1.50;;;;;;;19.76;74.93;99017.96;218699;1259;139962;-64
2023/07/29 21:02:47;;;;;;;4.30;1.90;;;;;;;19.55;75.51;99014.44;217943;1257;141750;-64
2023/07/29 21:07:59;;;;;;;9.00;1.90;;;;;;;19.51;76.18;99011.39;217877;1257;141081;-67
2023/07/29 21:13:29;;;;;;;2.80;2.30;;;;;;;19.43;76.69;98997.46;218611;1256;140618;-68
2023/07/29 21:18:52;;;;;;;4.10;1.90;;;;;;;19.42;77.27;98999.80;218048;1258;141897;-63
2023/07/29 21:24:20;;;;;;;2.70;1.70;;;;;;;19.32;77.53;98989.64;219505;1256;140668;-64
2023/07/29 21:29:40;;;;;;;2.30;1.90;;;;;;;19.30;77.96;98991.53;218977;1257;140331;-65
2023/07/29 21:34:44;;;;;;;3.20;1.50;;;;;;;19.28;77.93;98981.64;218867;1255;139915;-68
2023/07/29 21:39:48;;;;;;;3.30;1.70;;;;;;;19.21;78.12;98978.15;218826;1256;141171;-65
2023/07/29 21:44:52;;;;;;;2.00;1.50;;;;;;;19.19;78.50;98967.46;219017;1256;140581;-64
2023/07/29 21:49:56;;;;;;;10.90;1.80;;;;;;;19.17;78.77;98969.17;217782;1256;142021;-65
2023/07/29 21:55:00;;;;;;;3.70;2.10;;;;;;;19.16;78.80;98975.33;218728;1256;140541;-66
2023/07/29 22:00:05;;;;;;;1.90;1.80;;;;;;;19.03;78.78;98982.07;218447;1256;142301;-66
2023/07/29 22:05:09;;;;;;;2.40;1.60;;;;;;;18.90;78.90;98987.75;220309;1256;140246;-66
2023/07/29 22:10:13;;;;;;;2.30;2.10;;;;;;;18.83;79.23;98988.02;220406;1257;140709;-66
2023/07/29 22:15:18;;;;;;;3.80;2.20;;;;;;;18.78;79.16;98986.98;220440;1255;141429;-67
2023/07/29 22:20:24;;;;;;;7.70;2.40;;;;;;;18.71;79.46;98981.78;220521;1256;142077;-66
2023/07/29 22:25:28;;;;;;;2.40;2.20;;;;;;;18.69;79.80;98972.90;218526;1256;141615;-65
2023/07/29 22:30:36;;;;;;;2.70;2.50;;;;;;;18.68;79.79;98965.15;218801;1257;140113;-65
2023/07/29 22:35:41;;;;;;;7.20;3.00;;;;;;;18.61;79.79;98973.73;218107;1256;141818;-64
2023/07/29 22:40:54;;;;;;;5.40;2.50;;;;;;;18.53;79.56;98975.59;218490;1258;139908;-66
2023/07/29 22:45:59;;;;;;;2.50;2.30;;;;;;;18.42;79.63;98979.11;218571;1256;142017;-66
2023/07/29 22:51:04;;;;;;;4.30;2.60;;;;;;;18.37;79.89;98971.06;218082;1257;140213;-66
2023/07/29 22:56:08;;;;;;;3.50;2.20;;;;;;;18.29;79.94;98966.25;218402;1255;140547;-66
2023/07/29 23:01:13;;;;;;;9.20;2.50;;;;;;;18.19;80.28;98964.46;218129;1256;141354;-65
2023/07/29 23:06:17;;;;;;;3.20;2.90;;;;;;;18.12;80.20;98964.52;217808;1258;142027;-65
2023/07/29 23:11:22;;;;;;;3.60;2.40;;;;;;;18.02;80.42;98973.10;219167;1256;141365;-65
2023/07/29 23:16:27;;;;;;;5.00;2.20;;;;;;;17.99;80.85;98977.64;218515;1256;144587;-64
2023/07/29 23:21:32;;;;;;;5.00;2.40;;;;;;;17.95;81.03;98983.97;217532;1257;141069;-65
2023/07/29 23:26:37;;;;;;;4.80;2.80;;;;;;;17.91;81.38;98980.27;218800;1259;140585;-66
2023/07/29 23:31:42;;;;;;;2.50;2.00;;;;;;;17.89;81.51;98985.83;218236;1256;140790;-66
2023/07/29 23:36:47;;;;;;;4.20;2.50;;;;;;;17.89;81.79;98990.36;218987;1256;140882;-67
2023/07/29 23:41:51;;;;;;;2.80;2.60;;;;;;;17.92;82.14;98998.39;218885;1257;141649;-67
2023/07/29 23:46:57;;;;;;;3.50;2.70;;;;;;;17.93;82.42;99010.39;219877;1255;140727;-68
2023/07/29 23:52:01;;;;;;;4.40;3.00;;;;;;;17.90;82.36;99012.11;220545;1257;142579;-67
2023/07/29 23:57:05;;;;;;;2.20;2.10;;;;;;;17.88;82.62;99016.83;220590;1255;141571;-69
